Stratton Mountain, Vermont
Current Conditions -  °F | °C
As of 11:54 PM on Friday 19 Dec 2014 (Local Time) from KDDH Reporting Station
Overcast Overcast  
Wind Chill: -9°   Ceiling: 2000
Heat Index: -4°   Visibility: 10mi
Dew Point: -8°   Wind: 8mph
Humidity: 75%   Direction: 330°NNW
Pressure: 30.17"   Gusts: NA
Location:  43.11°N, 72.91°W
Report Text: KDDH 200454Z AUTO 33007KT 10SM OVC020 M04/M08 A3017 RMK AO2 SLP225 T10441083 410061044
Loading
Personal Weather Stations






























Interactive Weather Map New forecast layout! Learn more

10-Day Weather Forecast

Advertisements
Track Severe Weather on mobile